aviador You're here:

SCTN Decoded Metar

CHAITEN in CHILE
Report Time2018-07-20 06:00:00
UTC Time2018-07-20 06:31:15
Flight Rules vfr VFR
Wind080° at 06 kt
W.Decomp.*RWY 13: 3.0 kt HW 5.2 kt LCW
W.Rank080° ranks 8
Current wind is above 080° avg. (4.1)
Visibility9999 m
Phenomena:N/A
Clouds:N/A
Expected CloudBase > 400 ft AGL from Temp-Dew spread
CeilingNone
Temp01°C (ISA -14)
Dew Point00°C (93% RH)
AAT-3.1°C
QNH1028 hPa
Density Alt-2,119 ft
Elevation13 ft
Report Wrong Elevation
Raw Report
METAR SCTN 200600Z AUTO 08006KT CAVOK 01/M00 Q1028=

Extra information for SCTN:More info

Metar Taf Metar & Taf Last 4 Metars F.Rules Stats Wind Profile Meteogram Temp Stats Airport Information Weather charts Add Link Nearby VenuesMetar ALERT Operation Metar Decoded Social comments